createdAt,value
2023-12-15T00:00:25.791Z,12.03
2023-12-15T00:02:52.480Z,13.10
2023-12-15T00:05:19.132Z,12.23
2023-12-15T00:07:45.695Z,12.37
2023-12-15T00:10:13.378Z,12.87
2023-12-15T00:12:39.982Z,11.57
2023-12-15T00:15:06.897Z,12.03
2023-12-15T00:17:33.838Z,11.30
2023-12-15T00:20:00.794Z,12.23
2023-12-15T00:22:27.375Z,12.53
2023-12-15T00:24:53.934Z,13.68
2023-12-15T00:27:20.834Z,11.70
2023-12-15T00:29:47.413Z,12.47
2023-12-15T00:32:13.993Z,11.93
2023-12-15T00:34:40.617Z,12.37
2023-12-15T00:37:07.194Z,11.93
2023-12-15T00:39:36.664Z,12.37
2023-12-15T00:42:03.396Z,11.87
2023-12-15T00:44:30.053Z,11.40
2023-12-15T00:46:56.811Z,11.93
2023-12-15T00:49:24.750Z,11.93
2023-12-15T00:51:51.385Z,11.53
2023-12-15T00:54:17.931Z,12.03
2023-12-15T00:56:44.539Z,12.77
2023-12-15T00:59:11.137Z,12.60
2023-12-15T01:01:37.699Z,12.67
2023-12-15T01:04:04.386Z,11.50
2023-12-15T01:06:32.026Z,11.87
2023-12-15T01:08:58.903Z,11.60
2023-12-15T01:11:25.512Z,11.70
2023-12-15T01:13:52.120Z,11.80
2023-12-15T01:16:18.713Z,12.37
2023-12-15T01:18:45.341Z,12.97
2023-12-15T01:21:12.068Z,12.70
2023-12-15T01:23:39.088Z,12.27
2023-12-15T01:26:06.080Z,13.10
2023-12-15T01:28:32.704Z,12.73
2023-12-15T01:31:02.649Z,11.73
2023-12-15T01:33:29.712Z,12.67
2023-12-15T01:35:56.668Z,11.90
2023-12-15T01:38:23.644Z,12.33
2023-12-15T01:40:50.854Z,11.97
2023-12-15T01:43:17.768Z,12.73
2023-12-15T01:45:44.304Z,12.33
2023-12-15T01:48:11.705Z,12.63
2023-12-15T01:50:39.366Z,12.80
2023-12-15T01:53:05.921Z,11.67
2023-12-15T01:55:32.494Z,13.30
2023-12-15T01:57:59.489Z,12.33
2023-12-15T02:00:26.412Z,12.03
2023-12-15T02:02:53.030Z,12.40
2023-12-15T02:05:23.940Z,13.00
2023-12-15T02:07:50.611Z,12.97
2023-12-15T02:10:17.268Z,12.60
2023-12-15T02:12:43.844Z,12.40
2023-12-15T02:15:11.540Z,12.00
2023-12-15T02:17:38.876Z,12.77
2023-12-15T02:20:06.328Z,12.43
2023-12-15T02:22:32.930Z,11.67
2023-12-15T02:24:59.557Z,13.00
2023-12-15T02:27:26.206Z,12.57
2023-12-15T02:29:53.137Z,12.80
2023-12-15T02:32:19.925Z,12.27
2023-12-15T02:34:46.680Z,13.00
2023-12-15T02:37:13.274Z,13.20
2023-12-15T02:39:40.062Z,11.30
2023-12-15T02:42:06.894Z,12.27
2023-12-15T02:44:33.796Z,11.97
2023-12-15T02:47:00.336Z,12.23
2023-12-15T02:49:26.901Z,12.10
2023-12-15T02:51:53.443Z,12.20
2023-12-15T02:54:20.160Z,11.90
2023-12-15T02:56:46.811Z,11.50
2023-12-15T02:59:13.351Z,12.40
2023-12-15T03:01:40.262Z,12.00
2023-12-15T03:04:06.820Z,10.90
2023-12-15T03:06:33.387Z,12.20
2023-12-15T03:08:59.917Z,12.83
2023-12-15T03:11:26.542Z,12.73
2023-12-15T03:13:53.218Z,11.67
2023-12-15T03:16:22.636Z,12.30
2023-12-15T03:18:49.239Z,12.40
2023-12-15T03:21:15.777Z,11.63
2023-12-15T03:23:42.371Z,12.33
2023-12-15T03:26:08.979Z,12.33
2023-12-15T03:28:35.617Z,12.03
2023-12-15T03:31:02.227Z,11.97
2023-12-15T03:33:33.856Z,11.17
2023-12-15T03:36:00.467Z,12.20
2023-12-15T03:38:27.021Z,12.50
2023-12-15T03:40:53.717Z,13.60
2023-12-15T03:43:20.309Z,12.97
2023-12-15T03:45:47.324Z,12.40
2023-12-15T03:48:13.962Z,12.77
2023-12-15T03:50:40.820Z,12.63
2023-12-15T03:53:07.415Z,13.40
2023-12-15T03:55:34.049Z,12.10
2023-12-15T03:58:00.600Z,12.17
2023-12-15T04:00:28.419Z,13.17
2023-12-15T04:02:55.025Z,12.93
2023-12-15T04:05:22.182Z,13.50
2023-12-15T04:07:48.831Z,12.97
2023-12-15T04:10:15.436Z,13.03
2023-12-15T04:12:42.025Z,14.17
2023-12-15T04:15:09.915Z,12.93
2023-12-15T04:17:37.102Z,12.53
2023-12-15T04:20:04.837Z,11.60
2023-12-15T04:22:31.552Z,13.33
2023-12-15T04:24:58.696Z,13.50
2023-12-15T04:27:25.264Z,13.47
2023-12-15T04:29:51.890Z,13.10
2023-12-15T04:32:18.594Z,13.40
2023-12-15T04:34:45.187Z,12.73
2023-12-15T04:37:11.733Z,12.60
2023-12-15T04:39:38.286Z,12.87
2023-12-15T04:42:04.973Z,12.90
2023-12-15T04:44:31.603Z,13.80
2023-12-15T04:46:58.197Z,13.50
2023-12-15T04:49:24.728Z,13.13
2023-12-15T04:51:51.296Z,13.80
2023-12-15T04:54:18.044Z,14.30
2023-12-15T04:56:46.335Z,15.77
2023-12-15T04:59:13.521Z,14.10
2023-12-15T05:01:40.253Z,15.20
2023-12-15T05:04:06.793Z,13.27
2023-12-15T05:06:33.411Z,14.37
2023-12-15T05:09:00.056Z,14.27
2023-12-15T05:11:27.615Z,13.57
2023-12-15T05:13:54.377Z,15.50
2023-12-15T05:16:22.529Z,14.23
2023-12-15T05:18:49.466Z,13.03
2023-12-15T05:21:16.134Z,14.03
2023-12-15T05:23:42.766Z,14.83
2023-12-15T05:26:09.450Z,14.37
2023-12-15T05:28:36.115Z,14.10
2023-12-15T05:31:02.698Z,15.17
2023-12-15T05:33:29.547Z,14.97
2023-12-15T05:35:56.259Z,15.13
2023-12-15T05:38:22.916Z,15.10
2023-12-15T05:40:49.502Z,15.20
2023-12-15T05:43:16.070Z,15.10
2023-12-15T05:45:42.669Z,15.00
2023-12-15T05:48:09.667Z,14.83
2023-12-15T05:50:37.308Z,14.93
2023-12-15T05:53:04.306Z,14.57
2023-12-15T05:55:31.592Z,14.17
2023-12-15T05:57:58.162Z,15.10
2023-12-15T06:00:24.741Z,14.97
2023-12-15T06:02:51.373Z,15.23
2023-12-15T06:05:18.145Z,15.07
2023-12-15T06:07:44.829Z,15.60
2023-12-15T06:10:11.967Z,14.63
2023-12-15T06:12:38.766Z,14.17
2023-12-15T06:15:07.219Z,14.00
2023-12-15T06:17:33.942Z,14.37
2023-12-15T06:20:00.876Z,15.20
2023-12-15T06:22:27.500Z,14.27
2023-12-15T06:24:54.044Z,14.43
2023-12-15T06:27:20.754Z,13.87
2023-12-15T06:29:47.365Z,14.70
2023-12-15T06:32:15.885Z,15.00
2023-12-15T06:34:43.562Z,15.33
2023-12-15T06:37:10.248Z,14.97
2023-12-15T06:39:36.886Z,15.80
2023-12-15T06:42:04.261Z,15.33
2023-12-15T06:44:31.393Z,14.83
2023-12-15T06:46:58.453Z,14.37
2023-12-15T06:49:32.135Z,14.67
2023-12-15T06:51:59.618Z,14.93
2023-12-15T06:54:26.185Z,14.43
2023-12-15T06:56:52.824Z,15.63
2023-12-15T06:59:19.507Z,14.60
2023-12-15T07:01:46.084Z,14.20
2023-12-15T07:04:13.082Z,15.50
2023-12-15T07:06:39.820Z,14.50
2023-12-15T07:09:06.577Z,16.10
2023-12-15T07:11:33.582Z,16.47
2023-12-15T07:14:00.303Z,15.03
2023-12-15T07:16:27.005Z,14.60
2023-12-15T07:18:53.781Z,14.53
2023-12-15T07:21:20.399Z,14.90
2023-12-15T07:23:46.967Z,14.27
2023-12-15T07:26:13.575Z,13.90
2023-12-15T07:28:40.494Z,14.53
2023-12-15T07:31:09.082Z,13.97
2023-12-15T07:33:37.327Z,13.30
2023-12-15T07:36:04.121Z,14.70
2023-12-15T07:38:30.715Z,14.67
2023-12-15T07:40:58.526Z,13.23
2023-12-15T07:43:25.054Z,13.43
2023-12-15T07:45:51.617Z,13.30
2023-12-15T07:48:18.322Z,14.80
2023-12-15T07:50:45.149Z,13.70
2023-12-15T07:53:12.732Z,12.93
2023-12-15T07:55:39.403Z,13.77
2023-12-15T07:58:09.357Z,12.93
2023-12-15T08:00:35.982Z,12.70
2023-12-15T08:03:02.609Z,12.20
2023-12-15T08:05:29.229Z,13.57
2023-12-15T08:07:55.887Z,12.30
2023-12-15T08:10:26.708Z,12.27
2023-12-15T08:12:53.360Z,12.47
2023-12-15T08:15:20.515Z,11.70
2023-12-15T08:17:47.598Z,11.70
2023-12-15T08:20:14.430Z,12.77
2023-12-15T08:22:41.097Z,12.63
2023-12-15T08:25:07.892Z,11.57
2023-12-15T08:27:36.108Z,11.40
2023-12-15T08:30:02.907Z,11.27
2023-12-15T08:32:29.523Z,11.03
2023-12-15T08:34:56.195Z,11.40
2023-12-15T08:37:22.897Z,10.47
2023-12-15T08:39:49.437Z,10.63
2023-12-15T08:42:16.037Z,10.70
2023-12-15T08:44:45.503Z,10.17
2023-12-15T08:47:12.344Z,10.73
2023-12-15T08:49:38.962Z,11.13
2023-12-15T08:52:05.849Z,11.17
2023-12-15T08:54:32.540Z,11.90
2023-12-15T08:56:59.272Z,10.73
2023-12-15T08:59:25.877Z,11.80
2023-12-15T09:01:52.434Z,11.87
2023-12-15T09:04:20.066Z,11.40
2023-12-15T09:06:48.944Z,11.27
2023-12-15T09:09:17.210Z,10.33
2023-12-15T09:11:44.231Z,11.00
2023-12-15T09:14:11.123Z,10.87
2023-12-15T09:16:37.737Z,10.57
2023-12-15T09:19:04.437Z,10.53
2023-12-15T09:21:31.082Z,10.40
2023-12-15T09:23:58.475Z,15.27
2023-12-15T09:26:26.033Z,11.57
2023-12-15T09:28:52.841Z,10.57
2023-12-15T09:31:19.423Z,11.40
2023-12-15T09:33:46.259Z,11.33
2023-12-15T09:36:13.019Z,10.97
2023-12-15T09:38:39.844Z,13.57
2023-12-15T09:41:06.848Z,13.77
2023-12-15T09:43:33.467Z,12.77
2023-12-15T09:46:00.266Z,12.53
2023-12-15T09:48:29.095Z,12.77
2023-12-15T09:50:56.514Z,11.70
2023-12-15T09:53:23.348Z,11.20
2023-12-15T09:55:52.083Z,12.27
2023-12-15T09:58:19.022Z,13.07
2023-12-15T10:00:46.164Z,12.03
2023-12-15T10:03:14.644Z,12.43
2023-12-15T10:05:41.812Z,12.37
2023-12-15T10:08:08.511Z,13.70
2023-12-15T10:10:35.489Z,12.40
2023-12-15T10:13:02.497Z,13.57
2023-12-15T10:15:30.535Z,13.57
2023-12-15T10:17:58.226Z,14.10
2023-12-15T10:20:24.990Z,14.07
2023-12-15T10:23:04.899Z,29.13
2023-12-15T10:25:34.064Z,48.03
2023-12-15T10:28:03.206Z,28.83
2023-12-15T10:30:30.332Z,16.30
2023-12-15T10:33:00.705Z,16.50
2023-12-15T10:35:30.170Z,20.27
2023-12-15T10:37:57.250Z,26.80
2023-12-15T10:40:23.968Z,15.83
2023-12-15T10:42:51.921Z,14.53
2023-12-15T10:45:19.523Z,16.60
2023-12-15T10:47:46.553Z,15.00
2023-12-15T10:50:13.473Z,14.23
2023-12-15T10:52:40.511Z,14.37
2023-12-15T10:55:07.850Z,17.90
2023-12-15T10:57:34.603Z,14.57
2023-12-15T11:00:03.596Z,16.07
2023-12-15T11:02:32.813Z,15.03
2023-12-15T11:05:00.443Z,14.83
2023-12-15T11:07:28.450Z,16.63
2023-12-15T11:09:56.348Z,14.37
2023-12-15T11:12:28.595Z,14.20
2023-12-15T11:14:55.341Z,14.00
2023-12-15T11:17:22.578Z,13.13
2023-12-15T11:19:49.900Z,14.57
2023-12-15T11:22:16.521Z,14.27
2023-12-15T11:24:43.144Z,13.30
2023-12-15T11:27:11.725Z,14.27
2023-12-15T11:29:38.361Z,13.50
2023-12-15T11:32:24.713Z,16.08
2023-12-15T11:34:51.311Z,13.70
2023-12-15T11:37:18.589Z,14.47
2023-12-15T11:39:47.816Z,13.43
2023-12-15T11:42:15.597Z,14.30
2023-12-15T11:44:44.894Z,14.30
2023-12-15T11:47:12.538Z,13.70
2023-12-15T11:49:44.035Z,13.73
2023-12-15T11:52:14.067Z,13.73
2023-12-15T11:54:41.200Z,13.43
2023-12-15T11:57:07.790Z,13.87
2023-12-15T11:59:45.735Z,13.73
2023-12-15T12:02:18.456Z,13.50
2023-12-15T12:04:48.559Z,14.07
2023-12-15T12:07:15.320Z,13.30
2023-12-15T12:09:43.062Z,14.10
2023-12-15T12:12:09.761Z,13.70
2023-12-15T12:14:41.479Z,14.80
2023-12-15T12:17:08.735Z,13.60
2023-12-15T12:19:39.554Z,13.33
2023-12-15T12:22:09.573Z,13.07
2023-12-15T12:24:36.300Z,14.13
2023-12-15T12:27:02.929Z,13.70
2023-12-15T12:29:32.912Z,14.00
2023-12-15T12:31:59.894Z,17.17
2023-12-15T12:34:26.756Z,18.70
2023-12-15T12:36:53.500Z,15.00
2023-12-15T12:39:24.344Z,14.23
2023-12-15T12:41:51.078Z,14.50
2023-12-15T12:44:17.718Z,14.53
2023-12-15T12:46:44.356Z,15.03
2023-12-15T12:49:11.009Z,14.00
2023-12-15T12:51:37.606Z,15.70
2023-12-15T12:54:04.266Z,14.60
2023-12-15T12:56:31.060Z,13.93
2023-12-15T12:58:59.598Z,14.73
2023-12-15T13:01:29.813Z,15.97
2023-12-15T13:03:56.737Z,14.60
2023-12-15T13:06:23.844Z,14.63
2023-12-15T13:08:50.747Z,14.47
2023-12-15T13:11:17.451Z,13.90
2023-12-15T13:13:44.093Z,15.13
2023-12-15T13:16:12.143Z,14.33
2023-12-15T13:18:38.885Z,14.90
2023-12-15T13:21:05.659Z,13.87
2023-12-15T13:23:32.292Z,13.73
2023-12-15T13:25:58.920Z,13.70
2023-12-15T13:28:27.778Z,13.83
2023-12-15T13:30:56.482Z,14.10
2023-12-15T13:33:23.249Z,13.73
2023-12-15T13:35:50.207Z,14.07
2023-12-15T13:38:17.800Z,14.40
2023-12-15T13:40:44.681Z,14.33
2023-12-15T13:43:11.694Z,14.30
2023-12-15T13:45:45.423Z,14.67
2023-12-15T13:48:17.504Z,13.77
2023-12-15T13:50:44.192Z,13.77
2023-12-15T13:53:11.509Z,15.98
2023-12-15T13:55:38.877Z,13.70
2023-12-15T13:58:06.963Z,13.73
2023-12-15T14:00:33.833Z,13.47
2023-12-15T14:03:00.525Z,13.00
2023-12-15T14:05:27.253Z,12.93
2023-12-15T14:07:55.512Z,12.33
2023-12-15T14:10:24.206Z,12.57
2023-12-15T14:12:52.036Z,13.77
2023-12-15T14:15:19.010Z,12.03
2023-12-15T14:17:45.791Z,12.50
2023-12-15T14:20:13.777Z,12.70
2023-12-15T14:22:40.896Z,12.13
2023-12-15T14:25:07.955Z,11.57
2023-12-15T14:27:35.210Z,12.73
2023-12-15T14:30:02.006Z,11.60
2023-12-15T14:32:29.175Z,11.87
2023-12-15T14:34:56.911Z,13.00
2023-12-15T14:37:23.634Z,12.17
2023-12-15T14:39:50.382Z,16.83
2023-12-15T14:42:17.016Z,13.90
2023-12-15T14:44:43.655Z,25.67
2023-12-15T14:47:11.180Z,12.80
2023-12-15T14:49:37.882Z,12.77
2023-12-15T14:52:05.310Z,11.37
2023-12-15T14:54:34.603Z,11.07
2023-12-15T14:57:01.265Z,11.50
2023-12-15T14:59:27.913Z,10.77
2023-12-15T15:01:55.605Z,11.40
2023-12-15T15:04:22.748Z,10.27
2023-12-15T15:06:50.502Z,10.93
2023-12-15T15:09:19.369Z,11.07
2023-12-15T15:11:46.435Z,11.00
2023-12-15T15:14:13.143Z,16.40
2023-12-15T15:16:40.024Z,11.67
2023-12-15T15:19:07.314Z,10.90
2023-12-15T15:21:34.197Z,9.60
2023-12-15T15:24:00.860Z,10.60
2023-12-15T15:26:30.857Z,10.17
2023-12-15T15:28:58.318Z,10.77
2023-12-15T15:31:25.910Z,10.93
2023-12-15T15:33:55.106Z,10.97
2023-12-15T15:36:25.315Z,11.03
2023-12-15T15:38:52.947Z,11.60
2023-12-15T15:41:19.581Z,12.00
2023-12-15T15:43:47.191Z,10.73
2023-12-15T15:46:20.574Z,10.83
2023-12-15T15:48:48.487Z,10.53
2023-12-15T15:51:24.790Z,11.13
2023-12-15T15:53:51.731Z,11.17
2023-12-15T15:56:18.999Z,14.18
2023-12-15T15:58:45.674Z,11.93
2023-12-15T16:01:35.941Z,12.93
2023-12-15T16:04:09.353Z,11.10
2023-12-15T16:06:36.253Z,11.50
2023-12-15T16:09:03.070Z,12.53
2023-12-15T16:11:29.780Z,12.53
2023-12-15T16:14:02.204Z,12.10
2023-12-15T16:16:34.781Z,13.80
2023-12-15T16:19:01.836Z,13.43
2023-12-15T16:21:28.448Z,13.37
2023-12-15T16:23:55.065Z,13.53
2023-12-15T16:26:22.102Z,13.67
2023-12-15T16:28:48.704Z,13.27
2023-12-15T16:31:16.031Z,13.50
2023-12-15T16:33:42.868Z,14.27
2023-12-15T16:36:10.349Z,14.80
2023-12-15T16:38:36.934Z,13.53
2023-12-15T16:41:03.701Z,14.60
2023-12-15T16:43:32.729Z,14.03
2023-12-15T16:45:59.782Z,13.53
2023-12-15T16:48:26.516Z,13.53
2023-12-15T16:50:53.182Z,13.23
2023-12-15T16:53:19.753Z,14.40
2023-12-15T16:55:46.328Z,13.57
2023-12-15T16:58:12.995Z,14.30
2023-12-15T17:00:39.718Z,14.93
2023-12-15T17:03:06.438Z,14.30
2023-12-15T17:05:34.616Z,14.60
2023-12-15T17:08:01.612Z,12.93
2023-12-15T17:10:28.247Z,13.53
2023-12-15T17:12:55.063Z,13.23
2023-12-15T17:15:21.710Z,13.13
2023-12-15T17:17:54.767Z,14.53
2023-12-15T17:20:29.439Z,12.70
2023-12-15T17:22:57.013Z,13.57
2023-12-15T17:25:24.274Z,13.73
2023-12-15T17:27:51.402Z,13.83
2023-12-15T17:30:18.226Z,14.77
2023-12-15T17:32:44.865Z,14.40
2023-12-15T17:35:11.608Z,13.13
2023-12-15T17:37:38.507Z,17.40
2023-12-15T17:40:06.163Z,14.33
2023-12-15T17:42:32.799Z,14.10
2023-12-15T17:44:59.371Z,13.67
2023-12-15T17:47:26.009Z,13.50
2023-12-15T17:49:52.642Z,13.10
2023-12-15T17:52:19.627Z,13.60
2023-12-15T17:54:46.283Z,13.20
2023-12-15T17:57:12.957Z,13.57
2023-12-15T17:59:39.526Z,13.27
2023-12-15T18:02:06.660Z,13.73
2023-12-15T18:04:33.743Z,13.87
2023-12-15T18:07:00.743Z,13.30
2023-12-15T18:09:27.373Z,13.07
2023-12-15T18:11:54.092Z,13.93
2023-12-15T18:14:21.701Z,13.40
2023-12-15T18:16:48.421Z,12.27
2023-12-15T18:19:17.841Z,12.10
2023-12-15T18:21:44.484Z,12.40
2023-12-15T18:24:11.310Z,12.13
2023-12-15T18:26:38.001Z,13.53
2023-12-15T18:29:04.630Z,13.03
2023-12-15T18:31:31.341Z,12.63
2023-12-15T18:33:58.056Z,12.73
2023-12-15T18:36:25.162Z,13.20
2023-12-15T18:38:51.820Z,13.37
2023-12-15T18:41:18.421Z,13.17
2023-12-15T18:43:47.065Z,13.07
2023-12-15T18:46:17.805Z,13.30
2023-12-15T18:48:44.638Z,13.47
2023-12-15T18:51:20.974Z,12.63
2023-12-15T18:53:48.308Z,13.60
2023-12-15T18:56:18.790Z,14.70
2023-12-15T18:58:47.790Z,13.17
2023-12-15T19:01:14.711Z,13.67
2023-12-15T19:03:42.280Z,14.13
2023-12-15T19:06:13.039Z,13.67
2023-12-15T19:08:39.620Z,19.30
2023-12-15T19:11:06.231Z,16.23
2023-12-15T19:13:32.943Z,16.63
2023-12-15T19:16:00.432Z,15.20
2023-12-15T19:18:27.086Z,15.13
2023-12-15T19:20:53.700Z,14.80
2023-12-15T19:23:20.327Z,13.87
2023-12-15T19:25:46.911Z,14.67
2023-12-15T19:28:15.317Z,14.47
2023-12-15T19:30:42.051Z,14.73
2023-12-15T19:33:09.353Z,15.03
2023-12-15T19:35:36.134Z,14.67
2023-12-15T19:38:02.791Z,14.83
2023-12-15T19:40:30.068Z,14.80
2023-12-15T19:42:58.736Z,15.87
2023-12-15T19:45:25.412Z,15.17
2023-12-15T19:47:52.019Z,14.37
2023-12-15T19:50:18.798Z,14.00
2023-12-15T19:52:45.456Z,14.70
2023-12-15T19:55:14.624Z,14.23
2023-12-15T19:57:41.553Z,14.40
2023-12-15T20:00:12.255Z,14.70
2023-12-15T20:02:39.414Z,15.43
2023-12-15T20:05:08.270Z,15.30
2023-12-15T20:07:35.148Z,14.90
2023-12-15T20:10:02.007Z,14.40
2023-12-15T20:12:29.275Z,14.37
2023-12-15T20:14:55.899Z,15.37
2023-12-15T20:17:22.926Z,14.97
2023-12-15T20:19:49.718Z,14.60
2023-12-15T20:22:16.475Z,14.40
2023-12-15T20:24:43.288Z,15.20
2023-12-15T20:27:12.839Z,15.10
2023-12-15T20:29:40.664Z,14.73
2023-12-15T20:32:07.403Z,14.60
2023-12-15T20:34:34.761Z,14.10
2023-12-15T20:37:01.534Z,14.23
2023-12-15T20:39:28.884Z,14.77
2023-12-15T20:41:55.531Z,15.53
2023-12-15T20:44:22.168Z,15.17
2023-12-15T20:46:49.611Z,15.47
2023-12-15T20:49:16.409Z,13.87
2023-12-15T20:51:43.287Z,14.57
2023-12-15T20:54:09.966Z,13.70
2023-12-15T20:56:36.637Z,14.47
2023-12-15T20:59:03.245Z,14.27
2023-12-15T21:01:30.011Z,15.07
2023-12-15T21:03:58.101Z,14.83
2023-12-15T21:06:25.404Z,13.07
2023-12-15T21:08:55.138Z,13.90
2023-12-15T21:11:22.047Z,13.17
2023-12-15T21:13:48.821Z,13.23
2023-12-15T21:16:26.079Z,12.60
2023-12-15T21:18:53.230Z,12.53
2023-12-15T21:21:31.310Z,12.37
2023-12-15T21:23:58.394Z,13.03
2023-12-15T21:26:25.038Z,13.80
2023-12-15T21:28:51.812Z,12.77
2023-12-15T21:31:19.072Z,13.20
2023-12-15T21:33:45.783Z,12.17
2023-12-15T21:36:12.768Z,12.80
2023-12-15T21:38:39.457Z,12.20
2023-12-15T21:41:06.343Z,12.93
2023-12-15T21:43:33.029Z,11.97
2023-12-15T21:45:59.833Z,11.77
2023-12-15T21:48:26.937Z,12.53
2023-12-15T21:50:53.658Z,11.67
2023-12-15T21:53:20.264Z,11.20
2023-12-15T21:55:46.870Z,12.53
2023-12-15T21:58:13.596Z,11.90
2023-12-15T22:00:40.328Z,11.40
2023-12-15T22:03:06.970Z,11.57
2023-12-15T22:05:33.659Z,11.23
2023-12-15T22:08:00.293Z,10.37
2023-12-15T22:10:27.339Z,11.37
2023-12-15T22:12:53.989Z,10.53
2023-12-15T22:15:20.635Z,10.37
2023-12-15T22:17:47.344Z,10.97
2023-12-15T22:20:14.025Z,12.98
2023-12-15T22:22:41.972Z,11.70
2023-12-15T22:25:09.251Z,11.33
2023-12-15T22:27:36.193Z,10.33
2023-12-15T22:30:03.462Z,11.50
2023-12-15T22:32:30.389Z,11.87
2023-12-15T22:34:57.725Z,11.63
2023-12-15T22:37:24.440Z,12.93
2023-12-15T22:39:51.124Z,12.85
2023-12-15T22:42:17.815Z,11.50
2023-12-15T22:44:44.418Z,12.27
2023-12-15T22:47:10.968Z,11.03
2023-12-15T22:49:37.821Z,11.63
2023-12-15T22:52:04.713Z,11.13
2023-12-15T22:54:31.733Z,10.13
2023-12-15T22:56:59.049Z,10.30
2023-12-15T22:59:27.676Z,10.43
2023-12-15T23:01:54.532Z,10.87
2023-12-15T23:04:21.262Z,10.97
2023-12-15T23:06:48.091Z,10.83
2023-12-15T23:09:14.897Z,12.17
2023-12-15T23:11:41.493Z,11.03
2023-12-15T23:14:08.212Z,12.07
2023-12-15T23:16:35.633Z,10.87
2023-12-15T23:19:02.443Z,11.37
2023-12-15T23:21:29.858Z,11.97
2023-12-15T23:23:56.732Z,10.70
2023-12-15T23:26:23.523Z,10.53
2023-12-15T23:28:50.451Z,12.27
2023-12-15T23:31:17.257Z,11.07
2023-12-15T23:33:44.883Z,11.77
2023-12-15T23:36:14.921Z,12.33
2023-12-15T23:38:42.233Z,11.80
2023-12-15T23:41:09.783Z,11.17
2023-12-15T23:43:37.519Z,11.80
2023-12-15T23:46:04.476Z,12.43
2023-12-15T23:48:31.312Z,11.90
2023-12-15T23:50:57.981Z,12.23
2023-12-15T23:53:24.652Z,13.10
2023-12-15T23:55:51.200Z,11.93
2023-12-15T23:58:17.856Z,12.63
